createdAt,value
2023-02-28T00:01:26.998Z,100776.19
2023-02-28T00:03:54.138Z,100778.66
2023-02-28T00:06:21.958Z,100778.72
2023-02-28T00:08:49.392Z,100777.72
2023-02-28T00:11:17.348Z,100779.47
2023-02-28T00:13:50.007Z,100783.88
2023-02-28T00:16:20.163Z,100794.38
2023-02-28T00:18:48.762Z,100792.69
2023-02-28T00:21:17.283Z,100794.31
2023-02-28T00:23:45.024Z,100802.91
2023-02-28T00:26:12.247Z,100802.91
2023-02-28T00:28:41.518Z,100799.34
2023-02-28T00:31:08.834Z,100801.53
2023-02-28T00:33:36.876Z,100799.16
2023-02-28T00:36:06.405Z,100795.63
2023-02-28T00:38:36.908Z,100791.22
2023-02-28T00:41:07.487Z,100790.16
2023-02-28T00:43:39.466Z,100790.91
2023-02-28T00:46:07.082Z,100789.03
2023-02-28T00:48:34.410Z,100789.88
2023-02-28T00:51:02.238Z,100791.38
2023-02-28T00:53:30.314Z,100786.88
2023-02-28T00:55:58.242Z,100786.81
2023-02-28T00:58:27.936Z,100785.84
2023-02-28T01:00:55.616Z,100789.94
2023-02-28T01:03:23.847Z,100784.59
2023-02-28T01:05:51.640Z,100783.63
2023-02-28T01:08:18.634Z,100786.91
2023-02-28T01:10:45.835Z,100779.91
2023-02-28T01:13:13.713Z,100787.59
2023-02-28T01:15:46.782Z,100796.31
2023-02-28T01:18:13.868Z,100795.41
2023-02-28T01:20:41.087Z,100796.19
2023-02-28T01:23:09.515Z,100796.28
2023-02-28T01:25:37.477Z,100796.25
2023-02-28T01:28:06.988Z,100797.13
2023-02-28T01:30:34.836Z,100795.53
2023-02-28T01:33:02.281Z,100785.94
2023-02-28T01:35:29.335Z,100790.44
2023-02-28T01:38:00.968Z,100793.19
2023-02-28T01:40:32.253Z,100793.22
2023-02-28T01:42:59.643Z,100800.25
2023-02-28T01:45:35.615Z,100805.47
2023-02-28T01:48:09.457Z,100801.19
2023-02-28T01:50:40.546Z,100806.53
2023-02-28T01:53:13.408Z,100807.53
2023-02-28T01:55:43.948Z,100802.47
2023-02-28T01:58:11.144Z,100800.81
2023-02-28T02:00:40.106Z,100795.72
2023-02-28T02:03:12.159Z,100799.16
2023-02-28T02:05:40.934Z,100797.59
2023-02-28T02:08:12.789Z,100802.88
2023-02-28T02:10:49.083Z,100808.22
2023-02-28T02:13:19.935Z,100809.06
2023-02-28T02:15:58.624Z,100804.84
2023-02-28T02:18:44.714Z,100814.47
2023-02-28T02:21:23.773Z,100810.13
2023-02-28T02:24:38.989Z,100812.81
2023-02-28T02:27:19.266Z,100811.03
2023-02-28T02:29:49.710Z,100808.47
2023-02-28T02:32:47.047Z,100806.72
2023-02-28T02:35:30.333Z,100811.03
2023-02-28T02:38:13.175Z,100820.50
2023-02-28T02:40:56.024Z,100819.69
2023-02-28T02:43:34.890Z,100825.69
2023-02-28T02:46:10.460Z,100829.13
2023-02-28T02:48:44.023Z,100830.03
2023-02-28T02:51:17.936Z,100824.81
2023-02-28T02:53:53.362Z,100832.41
2023-02-28T02:56:24.499Z,100837.69
2023-02-28T02:58:54.899Z,100842.88
2023-02-28T03:01:30.063Z,100838.44
2023-02-28T03:04:20.586Z,100842.75
2023-02-28T03:06:48.576Z,100841.03
2023-02-28T03:09:15.670Z,100846.19
2023-02-28T03:11:43.885Z,100846.97
2023-02-28T03:14:30.935Z,100846.16
2023-02-28T03:17:17.441Z,100843.56
2023-02-28T03:20:11.848Z,100848.66
2023-02-28T03:23:02.799Z,100851.25
2023-02-28T03:25:38.799Z,100851.88
2023-02-28T03:28:29.597Z,100867.47
2023-02-28T03:31:27.702Z,100866.47
2023-02-28T03:34:25.916Z,100869.78
2023-02-28T03:36:56.626Z,100872.41
2023-02-28T03:39:57.730Z,100870.78
2023-02-28T03:42:30.932Z,100872.88
2023-02-28T03:45:24.963Z,100873.25
2023-02-28T03:48:01.997Z,100881.09
2023-02-28T03:50:38.411Z,100881.94
2023-02-28T03:53:23.978Z,100875.13
2023-02-28T03:55:57.560Z,100872.53
2023-02-28T03:58:37.957Z,100871.56
2023-02-28T04:01:17.450Z,100877.69
2023-02-28T04:03:44.788Z,100875.94
2023-02-28T04:06:33.780Z,100874.22
2023-02-28T04:09:02.253Z,100881.13
2023-02-28T04:11:38.645Z,100876.75
2023-02-28T04:14:07.505Z,100875.81
2023-02-28T04:16:36.611Z,100875.81
2023-02-28T04:19:07.028Z,100869.72
2023-02-28T04:21:43.502Z,100868.06
2023-02-28T04:24:15.502Z,100869.78
2023-02-28T04:26:48.040Z,100868.84
2023-02-28T04:29:25.704Z,100873.09
2023-02-28T04:31:56.328Z,100869.50
2023-02-28T04:34:25.003Z,100874.69
2023-02-28T04:37:10.371Z,100878.03
2023-02-28T04:39:39.495Z,100878.81
2023-02-28T04:42:07.471Z,100881.34
2023-02-28T04:44:35.809Z,100884.84
2023-02-28T04:47:03.563Z,100887.31
2023-02-28T04:49:31.650Z,100885.44
2023-02-28T04:51:59.715Z,100882.91
2023-02-28T04:54:27.030Z,100886.47
2023-02-28T04:56:54.827Z,100888.09
2023-02-28T04:59:22.402Z,100890.69
2023-02-28T05:01:51.186Z,100883.66
2023-02-28T05:04:19.347Z,100889.72
2023-02-28T05:06:46.957Z,100897.50
2023-02-28T05:09:14.860Z,100901.03
2023-02-28T05:11:42.955Z,100891.53
2023-02-28T05:14:15.837Z,100906.31
2023-02-28T05:16:44.044Z,100898.69
2023-02-28T05:19:11.618Z,100906.63
2023-02-28T05:21:58.144Z,100908.44
2023-02-28T05:24:25.780Z,100905.22
2023-02-28T05:26:55.203Z,100909.72
2023-02-28T05:29:24.181Z,100912.59
2023-02-28T05:31:51.464Z,100911.94
2023-02-28T05:34:19.076Z,100915.66
2023-02-28T05:36:47.033Z,100911.47
2023-02-28T05:39:14.383Z,100922.03
2023-02-28T05:41:43.682Z,100914.53
2023-02-28T05:44:11.431Z,100915.59
2023-02-28T05:46:39.609Z,100921.03
2023-02-28T05:49:07.779Z,100921.19
2023-02-28T05:51:37.760Z,100918.81
2023-02-28T05:54:05.764Z,100922.47
2023-02-28T05:56:41.707Z,100927.09
2023-02-28T05:59:09.200Z,100929.09
2023-02-28T06:01:40.139Z,100930.03
2023-02-28T06:04:19.260Z,100916.34
2023-02-28T06:06:53.049Z,100932.78
2023-02-28T06:09:22.006Z,100935.38
2023-02-28T06:11:49.404Z,100934.53
2023-02-28T06:14:20.519Z,100924.84
2023-02-28T06:16:48.752Z,100918.72
2023-02-28T06:19:18.262Z,100932.34
2023-02-28T06:21:46.953Z,100926.19
2023-02-28T06:24:14.648Z,100925.44
2023-02-28T06:26:42.326Z,100929.84
2023-02-28T06:29:10.174Z,100932.47
2023-02-28T06:31:38.081Z,100926.53
2023-02-28T06:34:06.880Z,100922.53
2023-02-28T06:36:34.159Z,100922.69
2023-02-28T06:39:02.032Z,100918.56
2023-02-28T06:41:31.396Z,100923.22
2023-02-28T06:44:02.315Z,100920.13
2023-02-28T06:46:30.579Z,100911.06
2023-02-28T06:48:58.915Z,100913.16
2023-02-28T06:51:26.473Z,100905.91
2023-02-28T06:53:54.553Z,100906.38
2023-02-28T06:56:22.034Z,100897.34
2023-02-28T06:58:54.913Z,100902.31
2023-02-28T07:01:24.262Z,100889.19
2023-02-28T07:03:53.771Z,100876.56
2023-02-28T07:06:25.510Z,100868.84
2023-02-28T07:08:54.463Z,100870.53
2023-02-28T07:11:27.338Z,100883.59
2023-02-28T07:13:58.610Z,100879.13
2023-02-28T07:16:26.456Z,100876.50
2023-02-28T07:18:55.472Z,100877.28
2023-02-28T07:21:26.650Z,100872.75
2023-02-28T07:23:54.108Z,100880.38
2023-02-28T07:26:25.202Z,100881.78
2023-02-28T07:28:55.172Z,100891.28
2023-02-28T07:31:22.892Z,100892.53
2023-02-28T07:33:50.587Z,100897.03
2023-02-28T07:36:19.996Z,100891.75
2023-02-28T07:38:52.259Z,100893.22
2023-02-28T07:41:22.350Z,100901.13
2023-02-28T07:43:50.029Z,100896.78
2023-02-28T07:46:18.542Z,100897.75
2023-02-28T07:48:47.304Z,100908.28
2023-02-28T07:51:15.853Z,100903.19
2023-02-28T07:53:43.596Z,100908.41
2023-02-28T07:56:12.106Z,100912.03
2023-02-28T07:58:40.346Z,100912.16
2023-02-28T08:01:11.791Z,100913.09
2023-02-28T08:03:40.470Z,100904.56
2023-02-28T08:06:16.273Z,100910.78
2023-02-28T08:08:44.029Z,100903.78
2023-02-28T08:11:11.676Z,100911.72
2023-02-28T08:13:39.312Z,100908.25
2023-02-28T08:16:07.256Z,100899.66
2023-02-28T08:18:35.706Z,100905.13
2023-02-28T08:21:11.008Z,100899.13
2023-02-28T08:23:39.216Z,100892.06
2023-02-28T08:26:07.324Z,100897.28
2023-02-28T08:28:34.985Z,100893.94
2023-02-28T08:31:02.555Z,100900.13
2023-02-28T08:33:30.201Z,100893.28
2023-02-28T08:35:58.147Z,100892.56
2023-02-28T08:38:26.162Z,100891.81
2023-02-28T08:41:02.014Z,100881.31
2023-02-28T08:43:30.363Z,100883.03
2023-02-28T08:45:59.289Z,100880.38
2023-02-28T08:48:27.716Z,100881.25
2023-02-28T08:51:08.318Z,100887.34
2023-02-28T08:53:37.566Z,100891.72
2023-02-28T08:56:08.527Z,100889.94
2023-02-28T08:58:36.981Z,100876.81
2023-02-28T09:01:31.510Z,100877.47
2023-02-28T09:03:59.636Z,100869.66
2023-02-28T09:06:28.712Z,100878.22
2023-02-28T09:09:02.964Z,100871.34
2023-02-28T09:11:31.730Z,100866.34
2023-02-28T09:14:01.574Z,100865.63
2023-02-28T09:16:28.842Z,100865.06
2023-02-28T09:18:56.911Z,100873.56
2023-02-28T09:21:25.024Z,100870.56
2023-02-28T09:23:52.885Z,100867.19
2023-02-28T09:26:24.931Z,100867.59
2023-02-28T09:28:53.390Z,100863.38
2023-02-28T09:31:24.306Z,100858.00
2023-02-28T09:33:54.486Z,100856.19
2023-02-28T09:36:28.988Z,100854.75
2023-02-28T09:39:02.015Z,100863.47
2023-02-28T09:41:43.211Z,100845.75
2023-02-28T09:44:18.645Z,100851.22
2023-02-28T09:46:50.082Z,100847.16
2023-02-28T09:49:26.967Z,100844.31
2023-02-28T09:52:10.507Z,100836.47
2023-02-28T09:54:38.637Z,100835.38
2023-02-28T09:57:05.955Z,100834.66
2023-02-28T10:00:13.835Z,100823.06
2023-02-28T10:02:47.352Z,100824.78
2023-02-28T10:05:21.235Z,100822.53
2023-02-28T10:08:01.014Z,100817.88
2023-02-28T10:10:37.122Z,100808.41
2023-02-28T10:13:14.764Z,100797.25
2023-02-28T10:15:44.097Z,100799.38
2023-02-28T10:18:17.093Z,100796.59
2023-02-28T10:20:45.032Z,100796.94
2023-02-28T10:23:23.895Z,100798.78
2023-02-28T10:26:02.493Z,100792.03
2023-02-28T10:28:33.005Z,100793.25
2023-02-28T10:31:01.432Z,100784.97
2023-02-28T10:33:38.583Z,100782.25
2023-02-28T10:36:10.664Z,100784.53
2023-02-28T10:38:40.891Z,100788.06
2023-02-28T10:41:09.979Z,100789.94
2023-02-28T10:43:39.640Z,100784.66
2023-02-28T10:46:24.458Z,100780.53
2023-02-28T10:49:06.193Z,100778.66
2023-02-28T10:51:40.379Z,100784.91
2023-02-28T10:54:18.303Z,100781.09
2023-02-28T10:56:46.586Z,100766.88
2023-02-28T10:59:17.042Z,100767.19
2023-02-28T11:01:50.333Z,100766.94
2023-02-28T11:04:39.062Z,100767.66
2023-02-28T11:07:08.415Z,100757.72
2023-02-28T11:09:40.023Z,100755.56
2023-02-28T11:12:10.363Z,100752.81
2023-02-28T11:14:49.351Z,100743.41
2023-02-28T11:17:23.822Z,100749.94
2023-02-28T11:19:58.626Z,100753.31
2023-02-28T11:22:33.186Z,100745.16
2023-02-28T11:25:08.145Z,100740.09
2023-02-28T11:27:38.900Z,100737.66
2023-02-28T11:30:24.205Z,100741.22
2023-02-28T11:32:52.339Z,100739.66
2023-02-28T11:35:27.706Z,100738.03
2023-02-28T11:37:55.357Z,100732.22
2023-02-28T11:40:50.936Z,100742.00
2023-02-28T11:43:46.009Z,100730.28
2023-02-28T11:46:42.908Z,100732.63
2023-02-28T11:49:28.977Z,100741.22
2023-02-28T11:52:34.691Z,100734.03
2023-02-28T11:55:22.696Z,100727.34
2023-02-28T11:58:11.757Z,100724.78
2023-02-28T12:01:02.146Z,100722.59
2023-02-28T12:03:46.830Z,100714.56
2023-02-28T12:06:22.702Z,100727.75
2023-02-28T12:09:15.074Z,100716.56
2023-02-28T12:11:55.005Z,100718.44
2023-02-28T12:14:40.858Z,100713.66
2023-02-28T12:17:17.086Z,100706.34
2023-02-28T12:19:57.392Z,100714.16
2023-02-28T12:22:27.433Z,100701.72
2023-02-28T12:25:25.239Z,100697.41
2023-02-28T12:27:56.170Z,100706.81
2023-02-28T12:31:07.433Z,100704.09
2023-02-28T12:33:40.857Z,100703.34
2023-02-28T12:36:16.922Z,100700.88
2023-02-28T12:39:10.036Z,100701.72
2023-02-28T12:41:43.867Z,100696.88
2023-02-28T12:44:21.819Z,100694.88
2023-02-28T12:46:58.045Z,100696.97
2023-02-28T12:49:48.924Z,100701.16
2023-02-28T12:52:24.602Z,100700.88
2023-02-28T12:55:00.193Z,100692.06
2023-02-28T12:57:42.601Z,100697.59
2023-02-28T13:00:36.029Z,100695.13
2023-02-28T13:03:16.637Z,100692.88
2023-02-28T13:06:23.925Z,100691.53
2023-02-28T13:08:54.596Z,100692.59
2023-02-28T13:11:32.596Z,100697.00
2023-02-28T13:14:20.341Z,100688.31
2023-02-28T13:17:15.123Z,100688.28
2023-02-28T13:19:46.872Z,100691.75
2023-02-28T13:22:39.335Z,100696.03
2023-02-28T13:25:35.242Z,100688.16
2023-02-28T13:28:10.534Z,100683.78
2023-02-28T13:30:57.040Z,100668.84
2023-02-28T13:33:33.127Z,100675.78
2023-02-28T13:36:16.723Z,100670.53
2023-02-28T13:38:56.595Z,100674.00
2023-02-28T13:41:45.000Z,100660.91
2023-02-28T13:44:19.744Z,100660.88
2023-02-28T13:46:50.126Z,100659.09
2023-02-28T13:49:27.758Z,100660.81
2023-02-28T13:52:07.449Z,100654.66
2023-02-28T13:55:04.841Z,100650.34
2023-02-28T13:57:46.011Z,100647.69
2023-02-28T14:00:35.419Z,100638.97
2023-02-28T14:03:44.299Z,100644.19
2023-02-28T14:06:18.307Z,100641.53
2023-02-28T14:08:56.685Z,100632.81
2023-02-28T14:11:30.767Z,100638.94
2023-02-28T14:13:58.644Z,100629.31
2023-02-28T14:16:31.542Z,100627.56
2023-02-28T14:19:12.849Z,100625.78
2023-02-28T14:21:52.389Z,100618.78
2023-02-28T14:24:38.455Z,100618.75
2023-02-28T14:27:53.053Z,100619.59
2023-02-28T14:30:52.701Z,100611.75
2023-02-28T14:33:50.930Z,100621.25
2023-02-28T14:36:36.911Z,100603.78
2023-02-28T14:39:29.267Z,100600.28
2023-02-28T14:41:56.897Z,100591.53
2023-02-28T14:44:27.510Z,100587.16
2023-02-28T14:47:08.119Z,100589.75
2023-02-28T14:49:54.520Z,100588.78
2023-02-28T14:52:31.140Z,100593.13
2023-02-28T14:55:14.366Z,100590.47
2023-02-28T14:57:52.557Z,100582.56
2023-02-28T15:00:32.021Z,100583.31
2023-02-28T15:03:01.969Z,100578.91
2023-02-28T15:05:36.172Z,100582.31
2023-02-28T15:08:16.022Z,100574.38
2023-02-28T15:10:55.072Z,100585.50
2023-02-28T15:13:24.141Z,100589.66
2023-02-28T15:16:02.369Z,100586.97
2023-02-28T15:18:39.587Z,100577.34
2023-02-28T15:21:14.439Z,100584.97
2023-02-28T15:23:47.109Z,100577.00
2023-02-28T15:26:22.287Z,100579.44
2023-02-28T15:29:00.501Z,100570.56
2023-02-28T15:31:39.051Z,100568.66
2023-02-28T15:34:23.269Z,100572.75
2023-02-28T15:36:52.243Z,100572.59
2023-02-28T15:39:23.209Z,100587.13
2023-02-28T15:41:51.090Z,100592.03
2023-02-28T15:44:26.246Z,100584.06
2023-02-28T15:47:04.598Z,100591.53
2023-02-28T15:49:51.050Z,100593.06
2023-02-28T15:52:25.524Z,100598.09
2023-02-28T15:54:56.806Z,100594.41
2023-02-28T15:57:27.625Z,100595.13
2023-02-28T16:00:01.714Z,100601.94
2023-02-28T16:02:40.104Z,100600.00
2023-02-28T16:05:07.445Z,100611.09
2023-02-28T16:07:36.273Z,100607.59
2023-02-28T16:10:03.686Z,100611.06
2023-02-28T16:12:35.044Z,100610.09
2023-02-28T16:15:30.108Z,100610.00
2023-02-28T16:17:58.975Z,100618.66
2023-02-28T16:20:31.905Z,100620.34
2023-02-28T16:23:02.636Z,100625.50
2023-02-28T16:25:45.143Z,100617.53
2023-02-28T16:28:21.951Z,100614.88
2023-02-28T16:30:49.451Z,100613.00
2023-02-28T16:33:16.915Z,100617.09
2023-02-28T16:35:44.324Z,100612.78
2023-02-28T16:38:11.686Z,100620.38
2023-02-28T16:40:39.030Z,100617.53
2023-02-28T16:43:16.574Z,100613.13
2023-02-28T16:45:44.127Z,100618.28
2023-02-28T16:48:16.951Z,100618.97
2023-02-28T16:50:45.764Z,100618.13
2023-02-28T16:53:13.231Z,100623.16
2023-02-28T16:55:40.882Z,100619.66
2023-02-28T16:58:08.133Z,100613.56
2023-02-28T17:00:35.490Z,100610.84
2023-02-28T17:03:05.762Z,100615.94
2023-02-28T17:05:40.183Z,100614.09
2023-02-28T17:08:07.604Z,100618.31
2023-02-28T17:10:35.081Z,100606.19
2023-02-28T17:13:13.146Z,100619.91
2023-02-28T17:15:42.423Z,100618.06
2023-02-28T17:18:20.046Z,100615.38
2023-02-28T17:20:47.615Z,100610.94
2023-02-28T17:23:15.089Z,100605.56
2023-02-28T17:25:42.631Z,100614.94
2023-02-28T17:28:10.430Z,100617.44
2023-02-28T17:30:37.749Z,100612.16
2023-02-28T17:33:05.039Z,100598.28
2023-02-28T17:35:32.484Z,100600.00
2023-02-28T17:37:59.914Z,100598.19
2023-02-28T17:40:27.079Z,100596.34
2023-02-28T17:42:56.391Z,100596.13
2023-02-28T17:45:23.766Z,100598.72
2023-02-28T17:47:51.611Z,100601.13
2023-02-28T17:50:22.311Z,100606.91
2023-02-28T17:52:51.551Z,100618.03
2023-02-28T17:55:21.290Z,100616.97
2023-02-28T17:57:48.654Z,100622.00
2023-02-28T18:00:21.450Z,100627.81
2023-02-28T18:02:48.629Z,100622.41
2023-02-28T18:05:16.322Z,100626.66
2023-02-28T18:07:44.581Z,100628.25
2023-02-28T18:10:20.615Z,100620.34
2023-02-28T18:12:49.564Z,100625.47
2023-02-28T18:15:18.270Z,100629.59
2023-02-28T18:17:45.794Z,100631.22
2023-02-28T18:20:14.758Z,100630.22
2023-02-28T18:22:43.349Z,100629.34
2023-02-28T18:25:18.319Z,100619.78
2023-02-28T18:27:58.521Z,100623.19
2023-02-28T18:30:31.816Z,100630.94
2023-02-28T18:33:00.123Z,100632.66
2023-02-28T18:35:36.816Z,100631.78
2023-02-28T18:38:07.380Z,100636.84
2023-02-28T18:40:35.737Z,100635.13
2023-02-28T18:43:05.204Z,100629.91
2023-02-28T18:45:36.559Z,100631.59
2023-02-28T18:48:06.361Z,100624.66
2023-02-28T18:50:36.398Z,100619.53
2023-02-28T18:53:03.995Z,100616.13
2023-02-28T18:55:36.940Z,100609.19
2023-02-28T18:58:05.096Z,100613.44
2023-02-28T19:00:34.448Z,100615.94
2023-02-28T19:03:01.972Z,100612.69
2023-02-28T19:05:35.938Z,100613.41
2023-02-28T19:08:05.772Z,100613.41
2023-02-28T19:10:34.335Z,100620.47
2023-02-28T19:13:03.555Z,100609.25
2023-02-28T19:15:32.479Z,100602.50
2023-02-28T19:18:01.930Z,100609.34
2023-02-28T19:20:30.214Z,100608.38
2023-02-28T19:23:00.472Z,100605.66
2023-02-28T19:25:30.007Z,100603.81
2023-02-28T19:27:58.696Z,100595.13
2023-02-28T19:30:27.343Z,100590.75
2023-02-28T19:32:57.867Z,100581.09
2023-02-28T19:35:26.103Z,100582.72
2023-02-28T19:37:53.757Z,100577.50
2023-02-28T19:40:21.272Z,100579.94
2023-02-28T19:42:48.356Z,100580.03
2023-02-28T19:45:15.998Z,100570.59
2023-02-28T19:47:43.507Z,100580.84
2023-02-28T19:50:11.197Z,100584.28
2023-02-28T19:52:38.166Z,100592.91
2023-02-28T19:55:05.730Z,100583.53
2023-02-28T19:57:33.086Z,100577.41
2023-02-28T20:00:00.686Z,100584.44
2023-02-28T20:02:29.446Z,100582.72
2023-02-28T20:04:59.883Z,100586.22
2023-02-28T20:07:28.058Z,100578.47
2023-02-28T20:09:58.520Z,100575.09
2023-02-28T20:12:26.807Z,100581.00
2023-02-28T20:14:57.718Z,100570.91
2023-02-28T20:17:25.423Z,100558.75
2023-02-28T20:19:52.639Z,100570.19
2023-02-28T20:22:19.822Z,100563.91
2023-02-28T20:24:48.260Z,100575.41
2023-02-28T20:27:16.101Z,100569.31
2023-02-28T20:29:43.289Z,100566.06
2023-02-28T20:32:10.881Z,100567.81
2023-02-28T20:34:38.023Z,100562.63
2023-02-28T20:37:05.302Z,100566.16
2023-02-28T20:39:32.696Z,100559.22
2023-02-28T20:42:00.141Z,100558.47
2023-02-28T20:44:27.376Z,100558.47
2023-02-28T20:46:54.904Z,100559.31
2023-02-28T20:49:23.177Z,100546.44
2023-02-28T20:51:50.387Z,100546.44
2023-02-28T20:54:18.299Z,100545.59
2023-02-28T20:56:45.979Z,100546.50
2023-02-28T20:59:13.321Z,100544.78
2023-02-28T21:01:45.025Z,100552.53
2023-02-28T21:04:12.633Z,100547.25
2023-02-28T21:06:46.918Z,100545.53
2023-02-28T21:09:15.964Z,100542.91
2023-02-28T21:11:43.668Z,100539.50
2023-02-28T21:14:18.051Z,100533.38
2023-02-28T21:16:46.410Z,100542.09
2023-02-28T21:19:13.825Z,100532.44
2023-02-28T21:21:48.117Z,100533.25
2023-02-28T21:24:17.502Z,100520.47
2023-02-28T21:26:46.704Z,100515.19
2023-02-28T21:29:15.055Z,100513.44
2023-02-28T21:31:42.638Z,100518.59
2023-02-28T21:34:12.434Z,100518.50
2023-02-28T21:36:45.900Z,100513.38
2023-02-28T21:39:20.054Z,100508.97
2023-02-28T21:41:48.133Z,100505.44
2023-02-28T21:44:23.003Z,100511.63
2023-02-28T21:46:55.205Z,100498.69
2023-02-28T21:49:23.102Z,100501.19
2023-02-28T21:51:50.366Z,100507.31
2023-02-28T21:54:17.658Z,100492.72
2023-02-28T21:56:44.906Z,100491.00
2023-02-28T21:59:12.003Z,100490.03
2023-02-28T22:01:44.352Z,100494.25
2023-02-28T22:04:23.950Z,100503.59
2023-02-28T22:07:01.785Z,100491.34
2023-02-28T22:09:29.241Z,100485.22
2023-02-28T22:11:57.626Z,100475.75
2023-02-28T22:14:25.361Z,100481.88
2023-02-28T22:16:54.746Z,100474.94
2023-02-28T22:19:28.303Z,100472.41
2023-02-28T22:21:56.356Z,100470.66
2023-02-28T22:24:24.892Z,100467.19
2023-02-28T22:26:53.042Z,100472.25
2023-02-28T22:29:20.411Z,100468.84
2023-02-28T22:31:48.137Z,100472.41
2023-02-28T22:34:15.643Z,100464.75
2023-02-28T22:36:44.063Z,100454.44
2023-02-28T22:39:12.028Z,100453.81
2023-02-28T22:41:39.723Z,100446.94
2023-02-28T22:44:07.575Z,100451.28
2023-02-28T22:46:38.707Z,100447.88
2023-02-28T22:49:06.978Z,100441.94
2023-02-28T22:51:34.972Z,100447.16
2023-02-28T22:54:02.543Z,100448.28
2023-02-28T22:56:30.803Z,100452.53
2023-02-28T22:59:00.162Z,100446.56
2023-02-28T23:01:30.891Z,100450.19
2023-02-28T23:03:58.955Z,100448.63
2023-02-28T23:06:26.146Z,100449.41
2023-02-28T23:08:56.227Z,100444.47
2023-02-28T23:11:30.763Z,100443.78
2023-02-28T23:14:01.288Z,100436.03
2023-02-28T23:16:33.384Z,100436.06
2023-02-28T23:19:03.030Z,100436.16
2023-02-28T23:21:30.827Z,100437.00
2023-02-28T23:23:58.293Z,100434.50
2023-02-28T23:26:25.604Z,100428.44
2023-02-28T23:28:52.730Z,100425.16
2023-02-28T23:31:20.749Z,100427.59
2023-02-28T23:33:48.183Z,100418.22
2023-02-28T23:36:17.376Z,100420.03
2023-02-28T23:38:49.103Z,100418.22
2023-02-28T23:41:16.943Z,100404.41
2023-02-28T23:43:44.892Z,100404.41
2023-02-28T23:46:13.673Z,100396.75
2023-02-28T23:48:41.273Z,100402.72
2023-02-28T23:51:14.925Z,100395.72
2023-02-28T23:53:44.808Z,100387.19
2023-02-28T23:56:17.187Z,100385.41
2023-02-28T23:58:47.154Z,100383.78
